Time;durP1;ratioP1;P1;durP2;ratioP2;P2;SDS_P1;SDS_P2;PMS_P1;PMS_P2;Temp;Humidity;BMP_temperature;BMP_pressure;BME280_temperature;BME280_humidity;BME280_pressure;Samples;Min_cycle;Max_cycle;Signal;HPM_P1;HPM_P2
2022/09/23 00:01:06;;;;;;;8.18;3.00;;;;;;;9.10;88.91;101570.13;4982963;28;20085;-76
2022/09/23 00:03:33;;;;;;;6.30;2.60;;;;;;;9.11;89.32;101574.34;4981974;28;20502;-76
2022/09/23 00:06:00;;;;;;;4.63;2.08;;;;;;;9.13;88.01;101566.47;4980006;28;20038;-77
2022/09/23 00:08:26;;;;;;;5.07;2.55;;;;;;;9.08;88.13;101569.44;4981453;28;20030;-77
2022/09/23 00:10:51;;;;;;;6.15;2.53;;;;;;;9.05;88.25;101567.09;4966367;28;20038;-75
2022/09/23 00:13:17;;;;;;;9.45;2.67;;;;;;;9.00;88.92;101568.44;4983547;28;20045;-76
2022/09/23 00:15:42;;;;;;;5.72;2.53;;;;;;;9.02;88.44;101569.13;4997965;28;20042;-76
2022/09/23 00:18:08;;;;;;;6.28;2.75;;;;;;;8.99;88.44;101557.28;4983246;28;20061;-78
2022/09/23 00:20:35;;;;;;;7.22;2.50;;;;;;;8.94;88.78;101565.41;4987531;28;20129;-76
2022/09/23 00:23:00;;;;;;;5.55;2.70;;;;;;;8.91;89.29;101568.25;4986102;28;20038;-76
2022/09/23 00:25:28;;;;;;;6.97;2.58;;;;;;;8.91;89.43;101570.84;4987279;28;20057;-76
2022/09/23 00:27:54;;;;;;;3.85;2.50;;;;;;;8.91;89.84;101563.06;4998766;28;20102;-76
2022/09/23 00:30:22;;;;;;;10.50;3.28;;;;;;;8.92;89.52;101563.88;4983009;28;20037;-77
2022/09/23 00:32:48;;;;;;;6.20;3.05;;;;;;;8.94;88.65;101557.63;4986591;28;20030;-75
2022/09/23 00:35:13;;;;;;;5.82;2.85;;;;;;;8.89;88.73;101558.97;4989385;28;20041;-75
2022/09/23 00:37:39;;;;;;;7.15;4.03;;;;;;;8.90;88.37;101556.25;4989372;28;20026;-76
2022/09/23 00:40:05;;;;;;;7.97;3.10;;;;;;;8.90;88.13;101545.09;4984459;28;20110;-76
2022/09/23 00:42:30;;;;;;;8.18;3.45;;;;;;;8.91;87.42;101551.88;4987921;28;20479;-76
2022/09/23 00:44:58;;;;;;;8.52;2.88;;;;;;;8.86;87.65;101548.88;4988728;28;20542;-76
2022/09/23 00:47:40;;;;;;;5.50;2.70;;;;;;;8.82;88.21;101550.91;4970903;28;20042;-76
2022/09/23 00:50:12;;;;;;;3.58;2.40;;;;;;;8.85;88.87;101553.22;4983090;28;20398;-76
2022/09/23 00:52:38;;;;;;;5.72;2.88;;;;;;;8.81;88.94;101556.19;4983849;28;20039;-76
2022/09/23 00:55:11;;;;;;;6.57;2.58;;;;;;;8.77;89.00;101551.25;4982451;28;20069;-76
2022/09/23 00:57:39;;;;;;;7.15;2.55;;;;;;;8.75;89.27;101552.34;4985194;28;20049;-78
2022/09/23 01:00:07;;;;;;;4.85;2.72;;;;;;;8.75;89.22;101547.16;4986933;28;20038;-75
2022/09/23 01:02:33;;;;;;;5.15;2.70;;;;;;;8.73;89.47;101549.88;4986223;28;20174;-76
2022/09/23 01:05:01;;;;;;;4.30;2.95;;;;;;;8.72;89.60;101545.66;4987498;28;20059;-76
2022/09/23 01:07:28;;;;;;;5.78;2.92;;;;;;;8.70;89.70;101552.72;4986273;28;20046;-78
2022/09/23 01:09:56;;;;;;;9.15;3.45;;;;;;;8.68;90.01;101552.03;4984772;28;20592;-76
2022/09/23 01:12:52;;;;;;;6.90;2.83;;;;;;;8.70;89.87;101537.22;4987953;28;20030;-75
2022/09/23 01:15:43;;;;;;;5.95;2.83;;;;;;;8.65;89.75;101548.88;4985804;28;20031;-76
2022/09/23 01:18:14;;;;;;;6.60;3.22;;;;;;;8.61;89.77;101540.56;4987133;28;20042;-76
2022/09/23 01:21:07;;;;;;;6.13;3.40;;;;;;;8.61;89.94;101537.97;4983394;28;20038;-76
2022/09/23 01:24:07;;;;;;;4.85;2.90;;;;;;;8.60;90.31;101543.25;4989230;28;20023;-76
2022/09/23 01:26:57;;;;;;;10.02;2.97;;;;;;;8.59;90.71;101537.28;4986775;28;20041;-76
2022/09/23 01:29:41;;;;;;;7.47;3.33;;;;;;;8.61;90.55;101542.28;4980744;28;20037;-77
2022/09/23 01:32:41;;;;;;;6.00;3.13;;;;;;;8.61;90.45;101535.38;4984712;28;20034;-77
2022/09/23 01:35:37;;;;;;;6.38;3.33;;;;;;;8.58;90.41;101531.25;4983173;28;20593;-77
2022/09/23 01:38:39;;;;;;;5.45;2.92;;;;;;;8.58;90.78;101525.28;4983465;28;20041;-78
2022/09/23 01:41:15;;;;;;;6.13;3.25;;;;;;;8.57;90.80;101524.47;4978227;28;20046;-76
2022/09/23 01:43:58;;;;;;;7.07;3.38;;;;;;;8.54;90.63;101521.31;4981103;28;20032;-78
2022/09/23 01:46:49;;;;;;;6.30;3.97;;;;;;;8.53;90.70;101519.66;4984957;28;20038;-76
2022/09/23 01:49:40;;;;;;;5.45;3.47;;;;;;;8.53;90.63;101517.91;4983896;28;20064;-76
2022/09/23 01:52:14;;;;;;;7.45;4.00;;;;;;;8.54;90.40;101524.72;4984346;28;20551;-75
2022/09/23 01:54:54;;;;;;;7.72;4.57;;;;;;;8.52;90.55;101515.44;4979382;28;20030;-75
2022/09/23 01:57:30;;;;;;;7.00;4.60;;;;;;;8.49;90.94;101515.69;4989400;28;20404;-76
2022/09/23 02:00:05;;;;;;;15.05;4.75;;;;;;;8.48;90.97;101516.66;4983071;28;20046;-76
2022/09/23 02:02:48;;;;;;;9.68;4.68;;;;;;;8.47;91.11;101512.41;4987939;28;20045;-75
2022/09/23 02:05:20;;;;;;;7.22;4.65;;;;;;;8.44;91.01;101516.06;4970262;28;20085;-77
2022/09/23 02:07:58;;;;;;;10.80;5.03;;;;;;;8.42;91.48;101506.78;4983187;28;20117;-76
2022/09/23 02:11:10;;;;;;;10.38;4.80;;;;;;;8.38;91.96;101506.19;4968174;28;20023;-75
2022/09/23 02:13:53;;;;;;;9.93;4.72;;;;;;;8.41;91.96;101512.88;4952641;28;20034;-75
2022/09/23 02:16:23;;;;;;;11.75;5.43;;;;;;;8.37;92.35;101507.94;4985490;28;20888;-75
2022/09/23 02:18:54;;;;;;;12.07;5.45;;;;;;;8.40;92.60;101509.50;4981678;28;20038;-76
2022/09/23 02:21:26;;;;;;;10.95;5.22;;;;;;;8.47;92.37;101515.00;4965522;28;20088;-76
2022/09/23 02:23:57;;;;;;;10.65;6.65;;;;;;;8.40;93.15;101506.91;4984492;28;20034;-76
2022/09/23 02:26:37;;;;;;;14.73;5.20;;;;;;;8.36;93.25;101510.66;4985757;28;20596;-77
2022/09/23 02:29:18;;;;;;;10.82;5.28;;;;;;;8.44;93.24;101500.56;4985524;28;20037;-75
2022/09/23 02:31:53;;;;;;;9.65;5.28;;;;;;;8.43;93.18;101503.28;4982229;28;20045;-76
2022/09/23 02:34:35;;;;;;;8.80;5.18;;;;;;;8.35;93.39;101507.25;4983778;28;20046;-75
2022/09/23 02:37:30;;;;;;;12.82;5.47;;;;;;;8.31;93.67;101503.28;4983897;28;20042;-75
2022/09/23 02:40:14;;;;;;;9.90;5.60;;;;;;;8.38;93.62;101501.00;4963869;28;20031;-76
2022/09/23 02:43:05;;;;;;;7.40;5.10;;;;;;;8.29;93.87;101497.44;4981969;28;20038;-75
2022/09/23 02:45:32;;;;;;;10.00;5.97;;;;;;;8.26;94.26;101496.84;4977560;28;20487;-75
2022/09/23 02:48:04;;;;;;;8.20;4.93;;;;;;;8.29;94.35;101499.19;4984447;28;20446;-76
2022/09/23 02:50:31;;;;;;;9.88;5.32;;;;;;;8.32;94.65;101493.75;4984279;28;21963;-76
2022/09/23 02:52:58;;;;;;;10.13;5.43;;;;;;;8.32;94.82;101494.56;4982236;28;20057;-76
2022/09/23 02:55:29;;;;;;;11.80;5.53;;;;;;;8.51;94.48;101493.13;4985549;28;20428;-75
2022/09/23 02:57:55;;;;;;;15.35;6.05;;;;;;;8.39;94.13;101487.97;4985399;28;20072;-76
2022/09/23 03:00:20;;;;;;;8.48;4.90;;;;;;;8.32;94.66;101492.00;4981131;28;20054;-77
2022/09/23 03:03:12;;;;;;;8.90;5.32;;;;;;;8.26;95.11;101474.41;4984643;28;20400;-76
2022/09/23 03:05:49;;;;;;;14.60;5.55;;;;;;;8.22;95.39;101478.19;4981445;28;20030;-75
2022/09/23 03:08:35;;;;;;;7.75;4.60;;;;;;;8.19;95.52;101475.84;4994530;28;20038;-75
2022/09/23 03:11:05;;;;;;;9.93;4.72;;;;;;;8.24;95.20;101472.91;4982831;28;20061;-75
2022/09/23 03:13:50;;;;;;;11.35;5.28;;;;;;;8.24;95.37;101480.66;4984848;28;20049;-75
2022/09/23 03:16:30;;;;;;;10.52;5.15;;;;;;;8.19;95.42;101473.25;4976703;28;20030;-75
2022/09/23 03:18:56;;;;;;;9.55;4.95;;;;;;;8.23;95.73;101471.25;4999723;28;20897;-76
2022/09/23 03:21:27;;;;;;;6.35;4.13;;;;;;;8.16;95.83;101473.53;4965225;28;20121;-76
2022/09/23 03:23:56;;;;;;;9.75;4.60;;;;;;;8.15;96.11;101472.69;4964700;28;20431;-76
2022/09/23 03:26:31;;;;;;;8.77;4.03;;;;;;;8.15;95.98;101472.69;4984124;28;20026;-75
2022/09/23 03:28:58;;;;;;;11.00;4.30;;;;;;;8.14;96.18;101473.63;4968344;28;20041;-75
2022/09/23 03:31:24;;;;;;;11.40;5.18;;;;;;;8.26;95.94;101465.84;4979689;28;20632;-77
2022/09/23 03:33:55;;;;;;;9.80;4.55;;;;;;;8.18;96.19;101463.88;4986024;28;20541;-77
2022/09/23 03:36:52;;;;;;;6.90;4.00;;;;;;;8.09;96.49;101469.78;4983410;28;20049;-75
2022/09/23 03:39:33;;;;;;;8.45;4.72;;;;;;;8.06;96.29;101472.59;4983403;28;20041;-75
2022/09/23 03:42:05;;;;;;;7.80;4.10;;;;;;;8.08;96.74;101470.72;4998506;28;20042;-76
2022/09/23 03:44:36;;;;;;;10.57;4.47;;;;;;;8.11;96.71;101470.47;4962021;28;20576;-76
2022/09/23 03:47:03;;;;;;;7.63;4.30;;;;;;;8.07;96.31;101461.34;4983512;28;20838;-75
2022/09/23 03:49:33;;;;;;;11.77;4.50;;;;;;;8.12;96.61;101461.81;4983903;28;20511;-77
2022/09/23 03:52:00;;;;;;;5.85;3.90;;;;;;;8.16;96.35;101453.66;4965186;28;20035;-78
2022/09/23 03:54:28;;;;;;;9.93;4.38;;;;;;;8.19;96.72;101452.59;4984118;28;20093;-76
2022/09/23 03:56:56;;;;;;;7.28;3.75;;;;;;;8.07;96.48;101451.81;4981523;28;20050;-77
2022/09/23 03:59:23;;;;;;;13.15;4.25;;;;;;;8.03;96.98;101447.03;4981004;28;20038;-75
2022/09/23 04:01:49;;;;;;;10.98;4.43;;;;;;;8.14;96.27;101442.63;4982685;28;20042;-76
2022/09/23 04:04:15;;;;;;;7.93;4.25;;;;;;;8.03;96.15;101447.03;4968374;28;20038;-75
2022/09/23 04:06:40;;;;;;;11.57;4.72;;;;;;;8.03;96.48;101439.28;4985660;28;20042;-76
2022/09/23 04:09:06;;;;;;;7.63;4.55;;;;;;;7.96;96.76;101436.38;4984388;28;20037;-75
2022/09/23 04:11:32;;;;;;;14.00;4.78;;;;;;;8.02;96.46;101435.06;4985115;28;20034;-75
2022/09/23 04:13:57;;;;;;;11.50;4.55;;;;;;;8.05;96.52;101438.22;4984981;28;20034;-75
2022/09/23 04:16:23;;;;;;;10.80;4.43;;;;;;;8.09;96.63;101438.78;4985154;28;21602;-76
2022/09/23 04:18:49;;;;;;;7.03;4.20;;;;;;;8.02;96.47;101435.06;4984899;28;20030;-76
2022/09/23 04:21:15;;;;;;;6.88;4.10;;;;;;;8.07;96.58;101433.75;4976513;28;20938;-75
2022/09/23 04:23:40;;;;;;;9.25;3.97;;;;;;;7.99;96.92;101430.97;4985498;28;20038;-75
2022/09/23 04:26:06;;;;;;;10.57;4.45;;;;;;;8.07;97.10;101426.00;4984581;28;20064;-75
2022/09/23 04:28:31;;;;;;;8.93;4.13;;;;;;;8.01;96.74;101423.09;4979034;28;20403;-75
2022/09/23 04:30:57;;;;;;;11.07;4.50;;;;;;;8.08;96.73;101416.47;4984016;28;20039;-75
2022/09/23 04:33:23;;;;;;;9.50;4.28;;;;;;;7.98;96.65;101414.63;4981513;28;20037;-76
2022/09/23 04:35:52;;;;;;;8.32;4.38;;;;;;;7.89;97.32;101406.81;4981404;28;20619;-76
2022/09/23 04:38:18;;;;;;;7.68;4.43;;;;;;;7.88;97.31;101408.59;4982897;28;20101;-76
2022/09/23 04:40:44;;;;;;;7.88;4.45;;;;;;;7.93;96.97;101408.19;4982184;28;20058;-76
2022/09/23 04:43:09;;;;;;;7.93;4.00;;;;;;;7.93;97.19;101405.63;4985159;28;20061;-75
2022/09/23 04:45:35;;;;;;;9.07;4.35;;;;;;;7.95;97.14;101412.31;4981471;28;20069;-77
2022/09/23 04:48:01;;;;;;;8.63;4.15;;;;;;;7.89;96.65;101412.81;4982456;28;20030;-76
2022/09/23 04:50:27;;;;;;;7.53;4.80;;;;;;;7.84;97.34;101412.34;4983491;28;20034;-75
2022/09/23 04:52:54;;;;;;;7.57;4.28;;;;;;;7.83;97.40;101420.22;4968544;28;20030;-75
2022/09/23 04:55:21;;;;;;;8.60;4.38;;;;;;;7.86;97.23;101414.81;4985778;28;20035;-76
2022/09/23 04:57:46;;;;;;;10.40;4.43;;;;;;;7.90;97.11;101419.59;4981814;28;20546;-76
2022/09/23 05:00:12;;;;;;;8.50;3.92;;;;;;;7.86;96.74;101417.41;4983194;28;20038;-77
2022/09/23 05:02:45;;;;;;;8.20;4.18;;;;;;;7.81;97.31;101422.91;4963875;28;20034;-76
2022/09/23 05:05:12;;;;;;;10.80;4.72;;;;;;;7.77;97.78;101421.53;4986032;28;20166;-76
2022/09/23 05:07:38;;;;;;;10.77;4.00;;;;;;;7.77;97.59;101418.94;4967216;28;20027;-76
2022/09/23 05:10:04;;;;;;;8.73;4.40;;;;;;;7.79;97.33;101414.47;4980318;28;20057;-75
2022/09/23 05:12:29;;;;;;;7.13;4.00;;;;;;;7.73;97.26;101415.78;4983652;28;20049;-76
2022/09/23 05:14:55;;;;;;;9.27;4.53;;;;;;;7.71;97.02;101422.03;4965107;28;20046;-76
2022/09/23 05:17:20;;;;;;;9.35;4.32;;;;;;;7.77;96.86;101421.53;4983539;28;20030;-76
2022/09/23 05:19:46;;;;;;;10.13;4.63;;;;;;;7.74;97.28;101417.44;4967703;28;20109;-76
2022/09/23 05:22:11;;;;;;;8.57;4.32;;;;;;;7.79;96.72;101414.47;4988017;28;20045;-76
2022/09/23 05:24:37;;;;;;;12.93;4.35;;;;;;;7.80;96.65;101419.53;4987403;28;20045;-77
2022/09/23 05:27:06;;;;;;;8.07;3.97;;;;;;;7.84;96.78;101417.53;4985473;28;20036;-76
2022/09/23 05:29:31;;;;;;;9.05;4.38;;;;;;;7.72;96.85;101409.00;4997549;28;20030;-76
2022/09/23 05:31:57;;;;;;;11.02;4.25;;;;;;;7.76;96.77;101414.72;4986963;28;20064;-75
2022/09/23 05:34:23;;;;;;;7.90;4.63;;;;;;;7.78;96.77;101423.19;4982693;28;20034;-75
2022/09/23 05:36:49;;;;;;;8.55;4.72;;;;;;;7.72;96.96;101416.75;4988424;28;20045;-75
2022/09/23 05:39:14;;;;;;;12.75;5.30;;;;;;;7.75;96.83;101413.09;4982434;28;20053;-75
2022/09/23 05:41:42;;;;;;;11.93;5.53;;;;;;;7.84;96.84;101416.72;4968447;28;20027;-76
2022/09/23 05:44:08;;;;;;;10.82;5.47;;;;;;;7.81;96.87;101412.59;4985486;28;20034;-75
2022/09/23 05:46:34;;;;;;;11.95;5.15;;;;;;;7.78;96.87;101416.25;4963360;28;20096;-76
2022/09/23 05:49:00;;;;;;;16.08;5.05;;;;;;;7.86;96.88;101422.56;4985856;28;20061;-76
2022/09/23 05:51:27;;;;;;;17.65;4.75;;;;;;;7.90;96.97;101422.19;4983187;28;20030;-75
2022/09/23 05:53:54;;;;;;;11.20;4.97;;;;;;;7.91;96.75;101416.09;4985361;28;20048;-75
2022/09/23 05:56:22;;;;;;;15.50;4.95;;;;;;;7.95;96.61;101420.06;4986137;28;20083;-75
2022/09/23 05:58:52;;;;;;;10.15;4.97;;;;;;;8.01;95.66;101420.53;4965405;28;20041;-75
2022/09/23 06:01:20;;;;;;;12.27;4.28;;;;;;;8.07;95.68;101428.56;5000031;28;20109;-75
2022/09/23 06:03:49;;;;;;;9.00;4.68;;;;;;;8.02;95.72;101422.97;4983093;28;20040;-76
2022/09/23 06:06:18;;;;;;;9.45;4.60;;;;;;;8.06;95.66;101423.53;4984706;28;20126;-75
2022/09/23 06:08:47;;;;;;;12.95;5.93;;;;;;;8.15;95.57;101425.38;4985559;28;20089;-75
2022/09/23 06:11:13;;;;;;;15.43;4.88;;;;;;;8.25;94.87;101417.69;4968218;28;20053;-75
2022/09/23 06:13:40;;;;;;;14.85;5.05;;;;;;;8.27;94.87;101424.38;4987747;28;20114;-76
2022/09/23 06:16:10;;;;;;;9.43;5.32;;;;;;;8.34;95.15;101419.50;4980206;28;20507;-76
2022/09/23 06:18:41;;;;;;;10.82;4.60;;;;;;;8.43;94.21;101428.31;4987013;28;20414;-75
2022/09/23 06:21:07;;;;;;;10.30;4.53;;;;;;;8.48;93.94;101419.25;4978319;28;20034;-75
2022/09/23 06:23:33;;;;;;;7.95;5.05;;;;;;;8.46;94.47;101425.50;4987718;28;20749;-75
2022/09/23 06:26:00;;;;;;;10.70;4.95;;;;;;;8.62;94.23;101423.25;4965988;28;20082;-75
2022/09/23 06:28:31;;;;;;;11.10;5.30;;;;;;;8.74;93.25;101421.44;4998034;28;20038;-75
2022/09/23 06:31:01;;;;;;;8.05;4.93;;;;;;;8.91;92.38;101420.81;4983627;28;20035;-76
2022/09/23 06:33:28;;;;;;;13.85;4.53;;;;;;;9.43;90.45;101425.06;4986626;28;20038;-75
2022/09/23 06:35:58;;;;;;;10.68;4.90;;;;;;;9.88;87.26;101424.56;4970809;28;20030;-75
2022/09/23 06:38:25;;;;;;;8.73;4.72;;;;;;;10.29;85.07;101420.03;4987269;28;20042;-75
2022/09/23 06:40:55;;;;;;;10.88;4.45;;;;;;;10.72;82.14;101421.34;4985154;28;20042;-75
2022/09/23 06:43:22;;;;;;;10.75;4.03;;;;;;;11.20;80.24;101409.91;4986455;28;20049;-75
2022/09/23 06:45:55;;;;;;;10.60;3.90;;;;;;;11.24;78.69;101421.63;4987062;28;20117;-76
2022/09/23 06:48:22;;;;;;;7.85;3.97;;;;;;;11.55;78.40;101412.75;4983085;28;20038;-75
2022/09/23 06:50:48;;;;;;;12.50;5.40;;;;;;;11.91;76.85;101415.38;4979106;28;20113;-75
2022/09/23 06:53:14;;;;;;;10.68;4.38;;;;;;;11.78;76.80;101413.91;4963823;28;20591;-75
2022/09/23 06:55:40;;;;;;;7.53;3.85;;;;;;;11.70;76.71;101419.03;4969963;28;20040;-76
2022/09/23 06:58:07;;;;;;;7.15;4.53;;;;;;;11.50;77.73;101411.38;4986503;28;20030;-75
2022/09/23 07:00:34;;;;;;;9.00;4.15;;;;;;;11.33;79.09;101414.78;4985036;28;20073;-75
2022/09/23 07:02:59;;;;;;;8.50;4.03;;;;;;;11.21;80.41;101416.75;4982495;28;20428;-75
2022/09/23 07:05:24;;;;;;;7.57;4.03;;;;;;;11.14;81.16;101420.06;4986692;28;20038;-77
2022/09/23 07:07:52;;;;;;;7.93;4.22;;;;;;;11.06;80.87;101419.00;4984174;28;20676;-76
2022/09/23 07:10:17;;;;;;;9.10;4.20;;;;;;;11.03;81.45;101419.28;4996142;28;20030;-75
2022/09/23 07:12:43;;;;;;;6.63;4.15;;;;;;;11.06;80.90;101426.78;4987782;28;20022;-75
2022/09/23 07:15:09;;;;;;;10.15;4.35;;;;;;;11.16;80.36;101423.34;4984784;28;20105;-75
2022/09/23 07:17:34;;;;;;;9.57;4.40;;;;;;;11.20;80.53;101422.91;4985079;28;20034;-76
2022/09/23 07:20:00;;;;;;;25.20;6.93;;;;;;;11.24;80.14;101434.63;4982060;28;20105;-76
2022/09/23 07:22:26;;;;;;;8.10;4.15;;;;;;;11.22;80.63;101430.53;4970112;28;20189;-76
2022/09/23 07:24:54;;;;;;;7.50;3.92;;;;;;;11.17;80.93;101427.56;4981031;28;20498;-75
2022/09/23 07:27:25;;;;;;;14.75;4.88;;;;;;;11.25;80.95;101425.88;4983854;28;20038;-75
2022/09/23 07:29:51;;;;;;;10.43;4.10;;;;;;;11.43;81.23;101422.50;4982768;28;20038;-75
2022/09/23 07:32:18;;;;;;;6.13;3.50;;;;;;;11.43;80.35;101425.09;4967090;28;20038;-75
2022/09/23 07:34:45;;;;;;;5.90;3.67;;;;;;;11.30;80.36;101426.28;5000909;28;20577;-76
2022/09/23 07:37:12;;;;;;;8.23;3.70;;;;;;;11.26;80.63;101424.94;4986110;28;20143;-76
2022/09/23 07:39:38;;;;;;;10.77;3.75;;;;;;;11.30;80.83;101423.69;4983482;28;20041;-76
2022/09/23 07:42:04;;;;;;;8.82;4.43;;;;;;;11.28;80.57;101425.59;4985875;28;20038;-75
2022/09/23 07:44:31;;;;;;;7.28;4.07;;;;;;;11.24;81.23;101426.03;4987252;28;20054;-76
2022/09/23 07:46:57;;;;;;;10.25;4.50;;;;;;;11.43;80.09;101430.28;4986152;28;20403;-76
2022/09/23 07:49:23;;;;;;;13.50;4.43;;;;;;;11.83;78.46;101421.28;4983037;28;20037;-76
2022/09/23 07:51:49;;;;;;;6.45;3.53;;;;;;;12.26;76.95;101419.69;4986768;28;20030;-75
2022/09/23 07:54:16;;;;;;;8.50;3.90;;;;;;;12.47;74.76;101416.75;4972589;28;20427;-77
2022/09/23 07:56:42;;;;;;;7.13;3.80;;;;;;;12.60;75.22;101421.50;4995928;28;20110;-75
2022/09/23 07:59:14;;;;;;;8.93;3.85;;;;;;;12.87;74.70;101423.13;4981229;28;20747;-75
2022/09/23 08:01:51;;;;;;;8.15;4.28;;;;;;;13.09;73.08;101423.53;4986776;28;20035;-77
2022/09/23 08:04:21;;;;;;;8.80;4.63;;;;;;;13.19;72.60;101430.25;4984644;28;20042;-76
2022/09/23 08:06:52;;;;;;;4.82;3.25;;;;;;;13.36;70.30;101423.34;4982569;28;20081;-76
2022/09/23 08:09:21;;;;;;;10.70;4.30;;;;;;;13.33;70.96;101433.25;4982930;28;20121;-76
2022/09/23 08:11:47;;;;;;;12.55;3.42;;;;;;;13.36;71.82;101427.75;4982665;28;20471;-76
2022/09/23 08:14:14;;;;;;;17.30;4.60;;;;;;;13.26;71.51;101422.63;4968205;28;20038;-75
2022/09/23 08:16:40;;;;;;;5.82;3.85;;;;;;;13.18;72.38;101425.19;4985054;28;21994;-76
2022/09/23 08:19:07;;;;;;;9.90;4.13;;;;;;;13.21;72.71;101420.50;4984156;28;20059;-76
2022/09/23 08:21:32;;;;;;;9.18;3.80;;;;;;;13.13;74.25;101414.44;4982925;28;20109;-75
2022/09/23 08:23:58;;;;;;;6.63;3.90;;;;;;;13.06;73.92;101416.88;4986695;28;20061;-75
2022/09/23 08:26:24;;;;;;;13.43;4.05;;;;;;;12.88;72.72;101419.53;4984225;28;20041;-75
2022/09/23 08:28:53;;;;;;;8.35;3.58;;;;;;;12.80;73.88;101424.72;4982033;28;20038;-75
2022/09/23 08:31:21;;;;;;;8.35;3.63;;;;;;;12.73;74.13;101419.31;4986335;28;20118;-76
2022/09/23 08:33:47;;;;;;;7.85;3.30;;;;;;;12.71;74.73;101413.44;4981513;28;20391;-76
2022/09/23 08:36:13;;;;;;;12.25;3.97;;;;;;;12.66;74.42;101426.13;4977163;28;20039;-76
2022/09/23 08:38:38;;;;;;;8.50;3.92;;;;;;;12.74;74.48;101426.16;4972275;28;20042;-76
2022/09/23 08:41:13;;;;;;;8.73;3.63;;;;;;;12.89;74.65;101418.59;4981082;28;20045;-76
2022/09/23 08:43:41;;;;;;;14.18;4.70;;;;;;;13.02;74.14;101412.94;4988145;28;20081;-75
2022/09/23 08:46:11;;;;;;;7.50;3.60;;;;;;;13.14;74.40;101419.50;4987999;28;20042;-75
2022/09/23 08:48:42;;;;;;;8.63;3.47;;;;;;;13.31;72.68;101424.78;4987347;28;20026;-76
2022/09/23 08:51:20;;;;;;;7.45;3.63;;;;;;;13.62;72.74;101417.22;4970556;28;20491;-76
2022/09/23 08:53:46;;;;;;;9.00;3.47;;;;;;;14.02;71.77;101420.81;4968098;28;20805;-75
2022/09/23 08:56:22;;;;;;;9.52;4.05;;;;;;;14.47;68.91;101427.28;4984691;28;20038;-75
2022/09/23 08:59:17;;;;;;;8.65;3.97;;;;;;;14.74;68.64;101415.66;4970121;28;20042;-76
2022/09/23 09:01:52;;;;;;;10.30;4.00;;;;;;;15.21;67.24;101411.38;4986325;28;20109;-77
2022/09/23 09:04:26;;;;;;;8.68;3.58;;;;;;;15.43;65.70;101409.78;5002704;28;20230;-76
2022/09/23 09:07:01;;;;;;;13.00;3.97;;;;;;;15.61;66.16;101406.06;4983463;28;20088;-76
2022/09/23 09:09:36;;;;;;;10.57;4.05;;;;;;;15.45;65.21;101407.00;4985017;28;20030;-77
2022/09/23 09:12:19;;;;;;;11.50;3.67;;;;;;;15.50;64.85;101404.66;4984547;28;20034;-77
2022/09/23 09:15:27;;;;;;;7.72;3.80;;;;;;;15.44;65.71;101406.16;5003418;28;20042;-76
2022/09/23 09:18:10;;;;;;;10.13;4.20;;;;;;;15.29;66.73;101403.47;4982646;28;20035;-77
2022/09/23 09:20:44;;;;;;;6.60;3.22;;;;;;;15.25;64.53;101394.38;4985921;28;20407;-77
2022/09/23 09:23:30;;;;;;;8.45;4.40;;;;;;;15.14;nan;101398.19;4988364;28;20030;-77
2022/09/23 09:26:00;;;;;;;9.38;3.85;;;;;;;15.29;66.65;101390.41;4985412;28;20042;-76
2022/09/23 09:28:31;;;;;;;10.40;3.70;;;;;;;15.21;64.41;101389.66;5002495;28;20041;-77
2022/09/23 09:31:01;;;;;;;6.78;3.63;;;;;;;15.35;65.91;101387.13;4968981;28;20027;-78
2022/09/23 09:33:56;;;;;;;8.35;3.72;;;;;;;15.46;64.64;101380.66;5000447;28;20054;-77
2022/09/23 09:36:29;;;;;;;7.25;3.38;;;;;;;15.61;65.59;101380.72;4973266;28;20046;-77
2022/09/23 09:38:57;;;;;;;;;;;;;;;15.83;63.63;101375.72;4972801;28;20049;-77
2022/09/23 09:41:26;;;;;;;8.23;3.42;;;;;;;15.94;65.25;101370.84;4986545;28;19925;-77
2022/09/23 09:43:58;;;;;;;8.48;3.60;;;;;;;16.05;63.04;101377.47;4982345;28;20066;-77
2022/09/23 09:46:49;;;;;;;7.22;3.50;;;;;;;16.05;64.93;101376.63;4969673;28;20085;-77
2022/09/23 09:49:39;;;;;;;12.45;3.95;;;;;;;16.07;64.77;101375.47;4987957;28;20038;-77
2022/09/23 09:52:24;;;;;;;11.55;3.97;;;;;;;16.27;63.25;101375.75;4966195;28;20039;-78
2022/09/23 09:54:52;;;;;;;8.75;3.28;;;;;;;15.99;61.58;101375.53;4983009;28;20142;-78
2022/09/23 09:57:36;;;;;;;10.68;3.55;;;;;;;16.00;63.17;101373.75;4985839;28;20057;-78
2022/09/23 10:00:33;;;;;;;9.35;3.38;;;;;;;16.17;64.13;101372.59;4985482;28;20042;-77
2022/09/23 10:03:13;;;;;;;14.18;3.83;;;;;;;16.21;62.84;101363.41;4971944;28;20053;-78
2022/09/23 10:05:44;;;;;;;9.20;3.50;;;;;;;16.29;61.85;101368.56;4985134;28;20475;-77
2022/09/23 10:08:34;;;;;;;7.28;3.22;;;;;;;16.29;62.74;101378.19;4987022;28;20121;-79
2022/09/23 10:11:02;;;;;;;15.20;3.72;;;;;;;16.34;61.29;101370.63;4968088;28;20471;-77
2022/09/23 10:13:29;;;;;;;7.70;3.40;;;;;;;16.26;63.44;101363.69;4985250;28;20056;-79
2022/09/23 10:15:56;;;;;;;6.68;3.13;;;;;;;16.30;62.58;101364.94;4981843;28;20049;-77
2022/09/23 10:18:30;;;;;;;8.82;3.50;;;;;;;16.45;62.23;101367.56;4970838;28;20638;-78
2022/09/23 10:21:19;;;;;;;7.30;3.70;;;;;;;16.70;63.62;101362.84;4980050;28;20039;-77
2022/09/23 10:23:50;;;;;;;10.73;4.00;;;;;;;16.89;63.64;101352.81;4984861;28;20133;-77
2022/09/23 10:26:17;;;;;;;7.70;4.13;;;;;;;16.87;61.14;101354.81;4985444;28;20053;-77
2022/09/23 10:28:54;;;;;;;7.90;2.90;;;;;;;16.95;61.86;101357.31;4984352;28;20484;-79
2022/09/23 10:31:31;;;;;;;10.35;3.25;;;;;;;17.13;61.85;101351.69;4982448;28;20049;-78
2022/09/23 10:34:03;;;;;;;7.45;3.50;;;;;;;17.33;56.83;101351.88;4969430;28;20042;-79
2022/09/23 10:36:31;;;;;;;8.23;3.47;;;;;;;17.34;59.45;101358.75;4984504;28;20061;-77
2022/09/23 10:48:40;;;;;;;6.40;2.90;;;;;;;17.84;53.01;101340.41;4999305;28;20045;-78
2022/09/23 10:51:22;;;;;;;11.77;3.90;;;;;;;17.87;51.22;101340.03;4985028;28;20035;-77
2022/09/23 10:54:03;;;;;;;3.67;1.98;;;;;;;17.96;53.49;101338.09;4987876;28;20617;-76
2022/09/23 10:56:31;;;;;;;5.85;2.45;;;;;;;18.01;54.29;101338.34;4969195;28;20039;-78
2022/09/23 10:59:26;;;;;;;6.88;2.47;;;;;;;17.98;52.53;101339.50;4982381;28;20047;-77
2022/09/23 11:02:01;;;;;;;5.32;2.13;;;;;;;17.89;54.59;101335.41;4983991;28;20050;-78
2022/09/23 11:04:45;;;;;;;4.97;2.45;;;;;;;17.76;54.31;101333.47;4986846;28;20046;-78
2022/09/23 11:07:25;;;;;;;4.70;2.00;;;;;;;17.82;54.79;101329.28;4971255;28;20038;-78
2022/09/23 11:10:24;;;;;;;10.13;2.30;;;;;;;17.93;53.88;101327.97;4968439;28;20039;-77
2022/09/23 11:13:10;;;;;;;4.65;2.17;;;;;;;18.05;53.00;101334.31;4969801;28;20070;-78
2022/09/23 11:15:51;;;;;;;5.47;2.20;;;;;;;18.21;53.27;101326.13;4985662;28;20407;-76
2022/09/23 11:18:50;;;;;;;6.43;2.20;;;;;;;18.57;55.26;101319.84;4983938;28;20414;-76
2022/09/23 11:21:37;;;;;;;5.10;2.45;;;;;;;18.50;50.95;101316.38;4986589;28;20618;-78
2022/09/23 11:24:30;;;;;;;7.90;2.00;;;;;;;18.37;52.43;101314.50;4986744;28;20038;-77
2022/09/23 11:27:19;;;;;;;7.05;2.25;;;;;;;18.52;52.35;101306.50;4987111;28;20088;-79
2022/09/23 11:30:15;;;;;;;4.10;2.10;;;;;;;18.38;54.17;101308.22;4963895;28;20093;-78
2022/09/23 11:33:01;;;;;;;5.45;2.22;;;;;;;18.22;51.31;101305.97;4985960;28;20385;-78
2022/09/23 11:35:49;;;;;;;5.60;2.38;;;;;;;18.20;52.46;101307.97;4985937;28;20030;-77
2022/09/23 11:38:24;;;;;;;7.05;2.22;;;;;;;18.29;53.63;101301.56;4982786;28;20057;-78
2022/09/23 11:40:56;;;;;;;3.35;2.15;;;;;;;18.40;55.27;101303.63;4984056;28;20476;-77
2022/09/23 11:43:23;;;;;;;4.07;2.20;;;;;;;18.27;54.97;101304.38;4971326;28;20593;-77
2022/09/23 11:46:09;;;;;;;4.85;2.13;;;;;;;18.41;55.56;101299.97;4970262;28;20031;-78
2022/09/23 11:48:56;;;;;;;4.78;2.47;;;;;;;18.45;54.46;101295.94;4988237;28;20141;-77
2022/09/23 11:51:35;;;;;;;5.22;1.77;;;;;;;18.41;54.26;101293.94;4981730;28;20118;-79
2022/09/23 11:54:14;;;;;;;3.60;1.38;;;;;;;18.35;53.92;101289.47;4972452;28;20440;-77
2022/09/23 11:56:44;;;;;;;7.45;1.50;;;;;;;18.59;52.81;101288.13;4985013;28;20069;-76
2022/09/23 11:59:29;;;;;;;4.82;2.22;;;;;;;18.55;53.11;101281.66;4970163;28;20073;-78
2022/09/23 12:02:00;;;;;;;3.70;1.40;;;;;;;18.48;53.20;101289.53;4984250;28;20038;-76